Terminal Aerodrome Forecast
Issued by NWS Wilmington, OH

Current Version | Previous Version | Graphics & Text | Print | Product List | Glossary On
Versions: 1 2 3 4 5 6 7 8 9 10 11 12 13 14 15 16 17 18 19 20 21 22 23 24 25 26
325
FTUS41 KILN 081733 AAB
TAFCVG
TAF AMD
KCVG 081733Z 0818/0924 28015G22KT P6SM SCT030
     FM081900 28015G22KT P6SM OVC030
     FM082300 29011KT P6SM OVC025
     FM091000 28008KT P6SM OVC018
     FM091500 27007KT P6SM BKN025=

USA.gov is the U.S. government's official web portal to all federal, state and local government web resources and services.